createdAt,value
2018-07-10T00:00:10.531Z,6.62
2018-07-10T00:02:52.748Z,6.80
2018-07-10T00:07:47.172Z,6.80
2018-07-10T00:12:26.940Z,7.03
2018-07-10T00:14:56.899Z,6.55
2018-07-10T00:17:33.074Z,7.30
2018-07-10T00:20:03.475Z,7.20
2018-07-10T00:22:38.276Z,6.47
2018-07-10T00:25:06.904Z,5.33
2018-07-10T00:27:37.211Z,5.90
2018-07-10T00:30:07.287Z,5.50
2018-07-10T00:32:37.135Z,5.00
2018-07-10T00:35:05.717Z,5.53
2018-07-10T00:37:36.659Z,4.72
2018-07-10T00:40:09.221Z,4.90
2018-07-10T00:42:40.776Z,4.62
2018-07-10T00:45:11.121Z,4.53
2018-07-10T00:47:40.047Z,4.67
2018-07-10T00:50:08.685Z,4.42
2018-07-10T00:52:37.515Z,4.08
2018-07-10T00:55:06.086Z,4.15
2018-07-10T00:57:34.686Z,3.95
2018-07-10T01:00:03.510Z,3.83
2018-07-10T01:02:32.189Z,4.05
2018-07-10T01:05:00.949Z,3.50
2018-07-10T01:07:29.602Z,3.65
2018-07-10T01:09:58.664Z,3.58
2018-07-10T01:12:27.451Z,3.50
2018-07-10T01:14:56.180Z,3.30
2018-07-10T01:17:24.861Z,3.30
2018-07-10T01:19:53.763Z,3.30
2018-07-10T01:22:22.437Z,3.17
2018-07-10T01:24:51.212Z,3.20
2018-07-10T01:27:19.939Z,3.12
2018-07-10T01:29:49.270Z,3.17
2018-07-10T01:32:18.003Z,2.98
2018-07-10T01:34:46.892Z,3.10
2018-07-10T01:37:16.093Z,2.77
2018-07-10T01:39:45.069Z,3.15
2018-07-10T01:42:13.601Z,2.85
2018-07-10T01:44:42.629Z,2.95
2018-07-10T01:47:11.311Z,3.72
2018-07-10T01:49:40.373Z,3.50
2018-07-10T01:52:08.893Z,3.90
2018-07-10T01:54:37.692Z,3.65
2018-07-10T01:57:06.537Z,3.40
2018-07-10T01:59:35.147Z,3.60
2018-07-10T02:02:03.786Z,4.00
2018-07-10T02:04:32.750Z,3.83
2018-07-10T02:07:01.472Z,3.45
2018-07-10T02:09:30.089Z,3.42
2018-07-10T02:11:58.637Z,3.70
2018-07-10T02:14:26.952Z,3.80
2018-07-10T02:16:55.531Z,3.70
2018-07-10T02:19:24.725Z,4.10
2018-07-10T02:21:53.477Z,3.70
2018-07-10T02:24:24.996Z,3.70
2018-07-10T02:26:54.132Z,3.72
2018-07-10T02:29:23.728Z,3.87
2018-07-10T02:31:53.312Z,3.60
2018-07-10T02:34:22.033Z,3.50
2018-07-10T02:36:50.633Z,3.60
2018-07-10T02:39:19.887Z,3.45
2018-07-10T02:41:48.605Z,3.33
2018-07-10T02:44:17.246Z,3.62
2018-07-10T02:46:46.807Z,3.27
2018-07-10T02:49:19.430Z,3.08
2018-07-10T02:52:03.208Z,3.52
2018-07-10T02:54:34.540Z,2.87
2018-07-10T02:57:02.794Z,3.33
2018-07-10T02:59:35.651Z,2.55
2018-07-10T03:02:05.198Z,2.92
2018-07-10T03:04:35.141Z,3.08
2018-07-10T03:07:04.146Z,2.92
2018-07-10T03:09:32.894Z,3.52
2018-07-10T03:12:02.893Z,3.00
2018-07-10T03:14:31.500Z,3.65
2018-07-10T03:17:00.432Z,3.92
2018-07-10T03:19:29.769Z,3.62
2018-07-10T03:21:58.384Z,4.05
2018-07-10T03:24:26.977Z,3.87
2018-07-10T03:26:55.918Z,4.03
2018-07-10T03:29:25.797Z,4.35
2018-07-10T03:31:54.434Z,4.87
2018-07-10T03:34:23.583Z,4.47
2018-07-10T03:36:52.581Z,4.30
2018-07-10T03:39:21.739Z,4.85
2018-07-10T03:41:50.671Z,4.67
2018-07-10T03:44:19.951Z,5.15
2018-07-10T03:46:48.629Z,5.30
2018-07-10T03:49:17.331Z,5.65
2018-07-10T03:51:47.747Z,4.90
2018-07-10T03:54:16.668Z,5.12
2018-07-10T03:56:45.870Z,5.45
2018-07-10T03:59:14.471Z,4.92
2018-07-10T04:01:43.136Z,4.85
2018-07-10T04:04:12.329Z,5.12
2018-07-10T04:06:41.771Z,5.22
2018-07-10T04:09:11.237Z,4.83
2018-07-10T04:11:47.171Z,5.20
2018-07-10T04:14:16.915Z,4.95
2018-07-10T04:16:46.627Z,5.40
2018-07-10T04:19:15.806Z,5.50
2018-07-10T04:21:54.531Z,5.28
2018-07-10T04:24:23.475Z,5.05
2018-07-10T04:27:31.634Z,4.85
2018-07-10T04:30:07.645Z,5.50
2018-07-10T04:32:39.100Z,5.50
2018-07-10T04:35:11.065Z,5.33
2018-07-10T04:37:41.509Z,5.83
2018-07-10T04:40:10.316Z,4.67
2018-07-10T04:42:46.644Z,5.00
2018-07-10T04:45:17.285Z,5.72
2018-07-10T04:47:56.212Z,6.47
2018-07-10T04:50:33.038Z,6.05
2018-07-10T04:53:05.140Z,5.78
2018-07-10T04:55:38.566Z,5.87
2018-07-10T04:58:11.906Z,6.22
2018-07-10T05:00:49.971Z,6.20
2018-07-10T05:03:20.369Z,6.55
2018-07-10T05:05:49.042Z,6.90
2018-07-10T05:08:19.866Z,6.53
2018-07-10T05:10:49.495Z,5.75
2018-07-10T05:13:18.386Z,6.42
2018-07-10T05:15:52.703Z,7.53
2018-07-10T05:18:21.415Z,6.87
2018-07-10T05:20:50.394Z,6.78
2018-07-10T05:23:20.104Z,6.50
2018-07-10T05:25:53.199Z,6.83
2018-07-10T05:28:21.916Z,6.55
2018-07-10T05:30:50.876Z,6.90
2018-07-10T05:33:22.183Z,7.47
2018-07-10T05:35:51.668Z,6.85
2018-07-10T05:38:25.029Z,7.22
2018-07-10T05:40:53.640Z,6.70
2018-07-10T05:43:22.268Z,6.70
2018-07-10T05:45:50.994Z,7.20
2018-07-10T05:48:20.039Z,7.00
2018-07-10T05:50:48.685Z,6.70
2018-07-10T05:53:17.305Z,6.37
2018-07-10T05:55:48.525Z,6.62
2018-07-10T05:58:16.799Z,6.25
2018-07-10T06:00:45.415Z,6.25
2018-07-10T06:03:14.107Z,6.87
2018-07-10T06:05:42.807Z,6.45
2018-07-10T06:08:13.247Z,6.53
2018-07-10T06:10:42.503Z,6.53
2018-07-10T06:13:11.190Z,6.70
2018-07-10T06:15:40.395Z,6.97
2018-07-10T06:18:09.055Z,6.53
2018-07-10T06:20:37.737Z,5.87
2018-07-10T06:23:06.358Z,6.10
2018-07-10T06:25:35.938Z,4.97
2018-07-10T06:28:11.240Z,4.70
2018-07-10T06:30:40.866Z,3.80
2018-07-10T06:33:20.267Z,3.87
2018-07-10T06:36:21.549Z,3.75
2018-07-10T06:38:52.550Z,3.50
2018-07-10T06:41:21.461Z,3.20
2018-07-10T06:43:56.034Z,2.50
2018-07-10T06:46:29.879Z,2.58
2018-07-10T06:49:05.373Z,2.40
2018-07-10T06:51:35.620Z,2.30
2018-07-10T06:54:04.391Z,2.33
2018-07-10T06:56:33.196Z,2.15
2018-07-10T06:59:01.798Z,1.90
2018-07-10T07:01:30.418Z,2.20
2018-07-10T07:04:01.531Z,2.10
2018-07-10T07:06:31.541Z,2.15
2018-07-10T07:09:00.370Z,2.67
2018-07-10T07:11:28.974Z,2.10
2018-07-10T07:13:57.890Z,2.17
2018-07-10T07:16:26.452Z,2.37
2018-07-10T07:18:55.143Z,2.50
2018-07-10T07:21:23.890Z,2.45
2018-07-10T07:23:52.847Z,2.40
2018-07-10T07:26:21.612Z,2.02
2018-07-10T07:28:50.342Z,1.70
2018-07-10T07:31:19.369Z,1.62
2018-07-10T07:33:48.301Z,1.77
2018-07-10T07:36:17.553Z,1.70
2018-07-10T07:38:46.350Z,1.70
2018-07-10T07:41:15.067Z,1.67
2018-07-10T07:43:43.875Z,1.70
2018-07-10T07:46:12.525Z,1.65
2018-07-10T07:48:41.152Z,1.77
2018-07-10T07:51:11.489Z,1.65
2018-07-10T07:53:40.412Z,1.47
2018-07-10T07:56:08.953Z,1.60
2018-07-10T07:58:38.564Z,1.60
2018-07-10T08:01:07.184Z,1.60
2018-07-10T08:03:37.715Z,1.80
2018-07-10T08:06:07.506Z,1.87
2018-07-10T08:08:36.302Z,1.80
2018-07-10T08:11:05.025Z,1.50
2018-07-10T08:13:33.827Z,1.52
2018-07-10T08:16:02.417Z,1.65
2018-07-10T08:18:31.031Z,1.70
2018-07-10T08:20:59.604Z,1.90
2018-07-10T08:23:28.197Z,1.60
2018-07-10T08:25:57.866Z,1.75
2018-07-10T08:28:28.136Z,1.80
2018-07-10T08:31:00.371Z,1.57
2018-07-10T08:33:29.373Z,1.47
2018-07-10T08:35:57.610Z,1.67
2018-07-10T08:38:42.405Z,1.80
2018-07-10T08:41:24.512Z,1.90
2018-07-10T08:43:53.677Z,1.27
2018-07-10T08:46:29.128Z,1.82
2018-07-10T08:48:58.203Z,1.57
2018-07-10T08:51:27.889Z,1.47
2018-07-10T08:53:56.793Z,1.50
2018-07-10T08:56:26.782Z,1.80
2018-07-10T08:58:56.143Z,1.77
2018-07-10T09:01:25.717Z,1.82
2018-07-10T09:03:54.508Z,1.80
2018-07-10T09:06:23.346Z,1.70
2018-07-10T09:08:51.923Z,1.70
2018-07-10T09:11:20.600Z,1.55
2018-07-10T09:13:52.127Z,1.80
2018-07-10T09:16:20.882Z,1.15
2018-07-10T09:18:52.537Z,1.60
2018-07-10T09:21:21.544Z,1.45
2018-07-10T09:23:50.301Z,1.77
2018-07-10T09:26:19.269Z,1.92
2018-07-10T09:28:49.684Z,1.52
2018-07-10T09:31:18.835Z,1.30
2018-07-10T09:33:47.949Z,1.27
2018-07-10T09:36:17.353Z,1.50
2018-07-10T09:38:46.007Z,1.42
2018-07-10T09:41:14.622Z,1.30
2018-07-10T09:43:44.411Z,1.82
2018-07-10T09:46:13.325Z,1.70
2018-07-10T09:48:42.009Z,1.80
2018-07-10T09:51:10.802Z,1.75
2018-07-10T09:53:40.722Z,2.00
2018-07-10T09:56:09.442Z,2.12
2018-07-10T09:58:38.532Z,2.02
2018-07-10T10:01:12.447Z,2.10
2018-07-10T10:03:41.180Z,2.08
2018-07-10T10:06:10.193Z,2.00
2018-07-10T10:08:38.908Z,2.30
2018-07-10T10:11:07.640Z,2.12
2018-07-10T10:13:36.315Z,2.30
2018-07-10T10:16:04.891Z,1.80
2018-07-10T10:18:34.766Z,2.05
2018-07-10T10:21:03.600Z,2.08
2018-07-10T10:23:31.911Z,2.02
2018-07-10T10:26:00.835Z,2.00
2018-07-10T10:28:29.155Z,1.90
2018-07-10T10:30:58.548Z,1.42
2018-07-10T10:33:27.115Z,1.75
2018-07-10T10:35:55.808Z,1.77
2018-07-10T10:38:24.341Z,1.55
2018-07-10T10:40:53.724Z,1.37
2018-07-10T10:43:23.163Z,1.30
2018-07-10T10:45:52.241Z,1.25
2018-07-10T10:48:20.870Z,1.40
2018-07-10T10:50:51.095Z,1.40
2018-07-10T10:53:20.483Z,1.10
2018-07-10T10:55:49.189Z,1.50
2018-07-10T10:58:19.097Z,1.27
2018-07-10T11:00:48.353Z,1.60
2018-07-10T11:03:17.493Z,2.10
2018-07-10T11:05:46.492Z,2.15
2018-07-10T11:08:15.325Z,1.75
2018-07-10T11:10:43.925Z,2.27
2018-07-10T11:13:14.725Z,2.70
2018-07-10T11:15:44.509Z,2.60
2018-07-10T11:18:19.817Z,2.72
2018-07-10T11:21:12.375Z,2.87
2018-07-10T11:23:47.658Z,2.80
2018-07-10T11:26:25.153Z,2.90
2018-07-10T11:28:54.900Z,2.90
2018-07-10T11:31:23.522Z,3.08
2018-07-10T11:33:52.195Z,3.30
2018-07-10T11:36:21.054Z,3.55
2018-07-10T11:38:50.349Z,3.70
2018-07-10T11:41:20.032Z,4.20
2018-07-10T11:43:48.713Z,4.17
2018-07-10T11:46:17.460Z,4.40
2018-07-10T11:48:46.501Z,5.12
2018-07-10T11:51:15.887Z,4.78
2018-07-10T11:53:45.635Z,4.87
2018-07-10T11:56:14.845Z,4.50
2018-07-10T11:58:43.419Z,4.85
2018-07-10T12:01:12.193Z,4.65
2018-07-10T12:03:41.625Z,5.05
2018-07-10T12:06:11.292Z,4.65
2018-07-10T12:08:40.644Z,4.95
2018-07-10T12:11:17.161Z,4.80
2018-07-10T12:13:46.008Z,5.12
2018-07-10T12:16:15.003Z,5.33
2018-07-10T12:18:43.628Z,4.70
2018-07-10T12:21:18.183Z,5.00
2018-07-10T12:23:46.857Z,5.20
2018-07-10T12:26:16.451Z,5.40
2018-07-10T12:28:45.181Z,5.00
2018-07-10T12:31:13.864Z,5.35
2018-07-10T12:33:43.015Z,4.85
2018-07-10T12:36:11.889Z,4.87
2018-07-10T12:38:41.390Z,4.85
2018-07-10T12:41:10.111Z,4.78
2018-07-10T12:43:38.931Z,5.28
2018-07-10T12:46:07.784Z,4.78
2018-07-10T12:48:36.345Z,4.75
2018-07-10T12:51:04.975Z,4.80
2018-07-10T12:53:33.590Z,4.80
2018-07-10T12:56:02.492Z,3.75
2018-07-10T12:58:32.211Z,4.47
2018-07-10T13:01:01.629Z,4.00
2018-07-10T13:03:30.298Z,3.12
2018-07-10T13:05:59.538Z,3.90
2018-07-10T13:08:28.190Z,3.33
2018-07-10T13:10:57.155Z,3.00
2018-07-10T13:13:26.222Z,2.83
2018-07-10T13:15:55.385Z,2.55
2018-07-10T13:18:27.899Z,2.65
2018-07-10T13:20:57.208Z,3.00
2018-07-10T13:23:26.082Z,2.40
2018-07-10T13:25:54.760Z,2.22
2018-07-10T13:28:23.365Z,2.12
2018-07-10T13:30:52.121Z,1.85
2018-07-10T13:33:20.852Z,1.80
2018-07-10T13:35:49.577Z,2.02
2018-07-10T13:38:20.948Z,1.52
2018-07-10T13:40:50.641Z,1.90
2018-07-10T13:43:19.253Z,1.80
2018-07-10T13:45:47.950Z,1.70
2018-07-10T13:48:16.632Z,1.75
2018-07-10T13:50:45.330Z,2.25
2018-07-10T13:53:13.900Z,1.60
2018-07-10T13:55:42.552Z,1.62
2018-07-10T13:58:14.484Z,1.90
2018-07-10T14:00:46.609Z,1.85
2018-07-10T14:03:15.780Z,1.80
2018-07-10T14:05:44.496Z,1.98
2018-07-10T14:08:13.182Z,1.80
2018-07-10T14:10:42.030Z,1.90
2018-07-10T14:13:10.757Z,2.08
2018-07-10T14:15:39.757Z,2.20
2018-07-10T14:18:08.603Z,2.60
2018-07-10T14:20:40.484Z,2.58
2018-07-10T14:23:09.237Z,2.55
2018-07-10T14:25:37.932Z,2.90
2018-07-10T14:28:07.863Z,2.67
2018-07-10T14:30:36.723Z,3.37
2018-07-10T14:33:05.486Z,3.10
2018-07-10T14:35:34.916Z,3.22
2018-07-10T14:38:06.394Z,4.15
2018-07-10T14:40:38.809Z,4.25
2018-07-10T14:43:07.563Z,3.72
2018-07-10T14:45:37.309Z,3.65
2018-07-10T14:48:06.692Z,3.95
2018-07-10T14:50:35.614Z,4.12
2018-07-10T14:53:05.478Z,4.30
2018-07-10T14:55:34.585Z,4.22
2018-07-10T14:58:03.373Z,4.70
2018-07-10T15:00:32.032Z,4.10
2018-07-10T15:03:01.299Z,4.55
2018-07-10T15:05:29.860Z,4.37
2018-07-10T15:07:58.461Z,4.92
2018-07-10T15:10:27.542Z,4.72
2018-07-10T15:12:56.208Z,4.58
2018-07-10T15:15:24.924Z,4.95
2018-07-10T15:17:59.603Z,5.25
2018-07-10T15:20:28.375Z,5.03
2018-07-10T15:22:56.990Z,4.90
2018-07-10T15:25:25.652Z,5.15
2018-07-10T15:27:54.702Z,5.45
2018-07-10T15:30:23.561Z,5.53
2018-07-10T15:32:52.404Z,5.47
2018-07-10T15:35:21.861Z,5.08
2018-07-10T15:37:51.198Z,5.22
2018-07-10T15:40:20.253Z,5.85
2018-07-10T15:42:49.227Z,4.85
2018-07-10T15:45:17.845Z,6.37
2018-07-10T15:47:46.537Z,5.22
2018-07-10T15:50:15.218Z,5.72
2018-07-10T15:52:43.834Z,6.00
2018-07-10T15:55:12.441Z,5.70
2018-07-10T15:57:41.391Z,5.85
2018-07-10T16:00:10.029Z,5.85
2018-07-10T16:02:39.062Z,5.72
2018-07-10T16:05:07.732Z,6.40
2018-07-10T16:07:37.134Z,5.92
2018-07-10T16:10:06.017Z,6.17
2018-07-10T16:12:35.534Z,5.78
2018-07-10T16:15:04.207Z,5.97
2018-07-10T16:17:32.782Z,6.15
2018-07-10T16:20:05.880Z,6.20
2018-07-10T16:22:36.043Z,6.17
2018-07-10T16:25:11.356Z,6.40
2018-07-10T16:27:42.725Z,6.30
2018-07-10T16:30:13.291Z,6.25
2018-07-10T16:32:42.456Z,6.15
2018-07-10T16:35:11.668Z,6.55
2018-07-10T16:37:41.327Z,7.15
2018-07-10T16:40:09.951Z,6.50
2018-07-10T16:42:44.045Z,6.50
2018-07-10T16:45:17.490Z,6.83
2018-07-10T16:48:00.807Z,6.92
2018-07-10T16:50:35.597Z,6.60
2018-07-10T16:53:04.206Z,6.42
2018-07-10T16:55:33.162Z,6.75
2018-07-10T16:58:01.879Z,6.20
2018-07-10T17:00:30.712Z,6.15
2018-07-10T17:03:00.559Z,6.97
2018-07-10T17:05:29.159Z,6.55
2018-07-10T17:07:57.852Z,7.17
2018-07-10T17:10:26.548Z,7.22
2018-07-10T17:12:55.205Z,6.67
2018-07-10T17:15:23.895Z,7.42
2018-07-10T17:17:52.496Z,8.05
2018-07-10T17:20:21.237Z,7.00
2018-07-10T17:22:49.953Z,6.83
2018-07-10T17:25:19.429Z,8.00
2018-07-10T17:27:49.999Z,7.75
2018-07-10T17:30:18.667Z,8.00
2018-07-10T17:32:47.508Z,9.43
2018-07-10T17:35:16.562Z,10.28
2018-07-10T17:37:47.466Z,9.45
2018-07-10T17:40:16.738Z,9.78
2018-07-10T17:42:47.309Z,11.48
2018-07-10T17:45:22.490Z,11.95
2018-07-10T17:47:51.924Z,12.25
2018-07-10T17:50:20.934Z,14.10
2018-07-10T17:52:51.706Z,14.80
2018-07-10T17:55:21.248Z,14.90
2018-07-10T17:57:53.545Z,15.28
2018-07-10T18:00:22.745Z,16.80
2018-07-10T18:02:51.382Z,17.90
2018-07-10T18:05:20.465Z,18.42
2018-07-10T18:07:49.360Z,17.10
2018-07-10T18:10:18.400Z,18.85
2018-07-10T18:12:46.990Z,18.57
2018-07-10T18:15:15.593Z,17.57
2018-07-10T18:17:44.248Z,17.32
2018-07-10T18:20:13.174Z,19.20
2018-07-10T18:22:41.935Z,18.90
2018-07-10T18:25:10.502Z,17.65
2018-07-10T18:27:39.950Z,17.30
2018-07-10T18:30:08.853Z,17.48
2018-07-10T18:32:38.078Z,17.15
2018-07-10T18:35:06.921Z,15.60
2018-07-10T18:37:35.644Z,16.67
2018-07-10T18:40:04.382Z,15.98
2018-07-10T18:42:33.130Z,15.95
2018-07-10T18:45:02.296Z,15.50
2018-07-10T18:47:30.923Z,14.90
2018-07-10T18:49:59.846Z,14.98
2018-07-10T18:52:29.973Z,13.68
2018-07-10T18:54:59.580Z,14.03
2018-07-10T18:57:39.658Z,13.72
2018-07-10T19:00:08.352Z,14.40
2018-07-10T19:02:59.808Z,13.55
2018-07-10T19:05:28.471Z,13.25
2018-07-10T19:07:58.031Z,14.03
2018-07-10T19:10:27.583Z,13.55
2018-07-10T19:12:56.667Z,13.70
2018-07-10T19:15:25.353Z,12.73
2018-07-10T19:17:54.984Z,12.40
2018-07-10T19:20:26.627Z,12.03
2018-07-10T19:23:01.420Z,12.33
2018-07-10T19:25:30.288Z,11.53
2018-07-10T19:28:00.108Z,11.57
2018-07-10T19:30:36.485Z,11.03
2018-07-10T19:33:05.466Z,10.70
2018-07-10T19:35:34.103Z,10.28
2018-07-10T19:38:02.954Z,10.00
2018-07-10T19:40:31.609Z,10.80
2018-07-10T19:42:59.879Z,10.18
2018-07-10T19:45:28.913Z,11.15
2018-07-10T19:47:57.651Z,11.45
2018-07-10T19:50:33.146Z,12.45
2018-07-10T19:53:01.844Z,12.05
2018-07-10T19:55:30.552Z,14.15
2018-07-10T19:58:09.291Z,14.70
2018-07-10T20:00:43.561Z,13.20
2018-07-10T20:05:24.632Z,13.48
2018-07-10T20:07:58.895Z,14.58
2018-07-10T20:10:36.772Z,13.75
2018-07-10T20:13:17.904Z,14.15
2018-07-10T20:16:00.503Z,14.35
2018-07-10T20:20:51.165Z,14.03
2018-07-10T20:23:57.969Z,15.38
2018-07-10T20:27:16.714Z,15.10
2018-07-10T20:29:50.332Z,15.30
2018-07-10T20:32:23.881Z,15.05
2018-07-10T20:35:07.503Z,15.10
2018-07-10T20:37:36.716Z,14.25
2018-07-10T20:40:05.328Z,13.18
2018-07-10T20:42:43.451Z,13.78
2018-07-10T20:45:13.016Z,13.62
2018-07-10T20:47:50.174Z,13.43
2018-07-10T20:50:43.236Z,13.15
2018-07-10T20:53:20.840Z,13.60
2018-07-10T20:56:00.820Z,12.68
2018-07-10T20:58:35.112Z,13.88
2018-07-10T21:01:05.524Z,12.63
2018-07-10T21:03:59.183Z,12.90
2018-07-10T21:06:40.026Z,13.45
2018-07-10T21:09:11.579Z,11.93
2018-07-10T21:11:46.320Z,12.85
2018-07-10T21:15:24.367Z,12.50
2018-07-10T21:18:01.738Z,12.88
2018-07-10T21:21:37.582Z,13.22
2018-07-10T21:24:17.156Z,12.75
2018-07-10T21:27:08.925Z,13.95
2018-07-10T21:29:58.293Z,14.50
2018-07-10T21:32:39.412Z,13.43
2018-07-10T21:35:10.575Z,13.70
2018-07-10T21:37:50.577Z,13.08
2018-07-10T21:40:33.682Z,13.80
2018-07-10T21:43:57.968Z,11.85
2018-07-10T21:46:47.142Z,11.83
2018-07-10T21:49:55.966Z,12.95
2018-07-10T21:52:27.102Z,12.53
2018-07-10T21:54:57.964Z,11.57
2018-07-10T21:57:40.567Z,11.03
2018-07-10T22:00:12.926Z,11.73
2018-07-10T22:02:43.531Z,11.80
2018-07-10T22:05:14.514Z,11.78
2018-07-10T22:07:45.131Z,11.55
2018-07-10T22:10:16.447Z,11.60
2018-07-10T22:12:51.067Z,11.30
2018-07-10T22:15:23.516Z,10.93
2018-07-10T22:17:54.410Z,11.70
2018-07-10T22:20:25.467Z,11.83
2018-07-10T22:22:54.430Z,10.60
2018-07-10T22:25:23.148Z,11.83
2018-07-10T22:27:51.906Z,12.28
2018-07-10T22:31:23.794Z,10.75
2018-07-10T22:33:52.589Z,10.23
2018-07-10T22:36:21.445Z,10.45
2018-07-10T22:38:51.286Z,10.00
2018-07-10T22:41:20.829Z,9.55
2018-07-10T22:43:51.628Z,9.23
2018-07-10T22:46:21.759Z,8.80
2018-07-10T22:48:50.872Z,9.53
2018-07-10T22:51:19.753Z,9.50
2018-07-10T22:53:48.485Z,10.25
2018-07-10T22:56:17.985Z,11.05
2018-07-10T22:58:47.393Z,10.68
2018-07-10T23:01:16.078Z,10.93
2018-07-10T23:03:44.719Z,10.28
2018-07-10T23:06:13.531Z,11.05
2018-07-10T23:08:42.372Z,10.93
2018-07-10T23:11:14.204Z,10.90
2018-07-10T23:13:47.554Z,11.70
2018-07-10T23:16:17.779Z,11.70
2018-07-10T23:18:47.965Z,13.18
2018-07-10T23:21:19.067Z,11.28
2018-07-10T23:23:49.419Z,12.58
2018-07-10T23:26:19.543Z,11.43
2018-07-10T23:28:52.800Z,12.37
2018-07-10T23:31:25.157Z,13.38
2018-07-10T23:34:06.265Z,12.10
2018-07-10T23:36:36.841Z,11.88
2018-07-10T23:39:08.187Z,12.03
2018-07-10T23:41:57.381Z,13.22
2018-07-10T23:44:30.495Z,10.58
2018-07-10T23:47:30.976Z,11.48
2018-07-10T23:50:14.856Z,12.65
2018-07-10T23:53:48.925Z,12.55
2018-07-10T23:56:18.525Z,13.55
2018-07-10T23:58:48.403Z,11.88
